Time;durP1;ratioP1;P1;durP2;ratioP2;P2;SDS_P1;SDS_P2;PMS_P1;PMS_P2;Temp;Humidity;BMP_temperature;BMP_pressure;BME280_temperature;BME280_humidity;BME280_pressure;Samples;Min_cycle;Max_cycle;Signal;HPM_P1;HPM_P2
2021/09/08 00:03:51;;;;;;;25.70;18.10;;;;;;;15.84;82.88;100741.66;20664760;28;20141;-72
2021/09/08 00:13:54;;;;;;;25.42;17.98;;;;;;;15.64;84.44;100743.13;20663983;28;20085;-72
2021/09/08 00:23:55;;;;;;;24.08;16.27;;;;;;;15.70;84.63;100736.81;20663239;28;20104;-72
2021/09/08 00:33:58;;;;;;;27.55;18.30;;;;;;;15.76;84.23;100725.19;20662625;28;20475;-72
2021/09/08 00:44:09;;;;;;;25.02;18.02;;;;;;;15.65;84.29;100726.38;20660423;28;20055;-72
2021/09/08 00:54:13;;;;;;;28.17;17.15;;;;;;;15.53;84.55;100724.13;20660299;28;20050;-72
2021/09/08 01:04:15;;;;;;;21.77;17.38;;;;;;;15.48;84.71;100726.03;20659719;28;20054;-72
2021/09/08 01:14:17;;;;;;;24.75;17.70;;;;;;;15.40;84.52;100723.63;20659161;28;20050;-72
2021/09/08 01:24:20;;;;;;;22.25;16.25;;;;;;;15.26;85.26;100714.41;20659321;28;20042;-72
2021/09/08 01:34:23;;;;;;;22.48;16.75;;;;;;;15.08;85.28;100706.09;20658270;28;20097;-72
2021/09/08 01:44:25;;;;;;;25.10;17.85;;;;;;;15.09;85.28;100693.78;20658091;28;20051;-72
2021/09/08 01:54:26;;;;;;;23.15;17.45;;;;;;;15.03;85.52;100693.97;20655537;28;20112;-72
2021/09/08 02:04:28;;;;;;;27.13;18.30;;;;;;;14.99;85.89;100687.91;20655972;28;20055;-72
2021/09/08 02:14:30;;;;;;;26.73;17.25;;;;;;;14.95;86.22;100685.41;20656000;28;20050;-72
2021/09/08 02:24:32;;;;;;;25.02;18.00;;;;;;;14.93;85.85;100684.59;20656505;28;20046;-72
2021/09/08 02:34:34;;;;;;;25.85;17.80;;;;;;;14.89;86.12;100678.53;20655342;28;20054;-73
2021/09/08 02:44:35;;;;;;;24.45;18.40;;;;;;;14.60;87.17;100664.41;20637470;28;20054;-72
2021/09/08 02:54:37;;;;;;;26.10;19.08;;;;;;;14.50;87.57;100668.22;20655190;28;20416;-73
2021/09/08 03:04:39;;;;;;;25.25;19.85;;;;;;;14.50;87.17;100670.84;20662950;28;20053;-72
2021/09/08 03:14:41;;;;;;;29.02;18.92;;;;;;;14.43;87.72;100664.00;20669326;28;20047;-72
2021/09/08 03:24:42;;;;;;;27.98;19.70;;;;;;;14.38;87.92;100656.22;20669338;28;20046;-72
2021/09/08 03:34:44;;;;;;;28.75;19.60;;;;;;;14.28;87.82;100661.81;20666853;28;20428;-72
2021/09/08 03:44:46;;;;;;;30.98;20.65;;;;;;;14.22;87.95;100656.66;20666679;28;20050;-72
2021/09/08 03:54:48;;;;;;;28.27;19.55;;;;;;;14.19;87.85;100654.13;20665512;28;20054;-72
2021/09/08 04:04:50;;;;;;;29.67;19.90;;;;;;;14.12;87.58;100649.00;20664950;28;20116;-72
2021/09/08 04:14:53;;;;;;;27.65;19.92;;;;;;;14.10;87.86;100640.31;20664386;28;20116;-73
2021/09/08 04:24:55;;;;;;;25.52;18.20;;;;;;;13.94;88.05;100636.34;20664152;28;20050;-72
2021/09/08 04:35:02;;;;;;;30.52;20.42;;;;;;;13.90;88.04;100628.56;20662517;28;20050;-72
2021/09/08 04:45:04;;;;;;;28.80;19.65;;;;;;;13.86;88.21;100635.69;20662353;28;20046;-72
2021/09/08 04:55:07;;;;;;;29.00;19.05;;;;;;;13.96;87.56;100639.78;20663481;28;20514;-72
2021/09/08 05:05:10;;;;;;;30.63;20.00;;;;;;;13.96;87.52;100631.91;20660211;28;20060;-72
2021/09/08 05:15:12;;;;;;;31.98;21.00;;;;;;;14.06;87.00;100628.13;20660662;28;20047;-72
2021/09/08 05:25:14;;;;;;;28.38;18.38;;;;;;;14.25;86.59;100627.63;20640918;28;20054;-72
2021/09/08 05:35:16;;;;;;;25.85;17.45;;;;;;;14.33;86.26;100641.47;20654581;28;20587;-71
2021/09/08 05:45:18;;;;;;;28.00;19.60;;;;;;;14.33;86.56;100644.09;20656526;28;20097;-72
2021/09/08 05:55:20;;;;;;;26.73;19.48;;;;;;;14.50;86.18;100644.50;20656054;28;20412;-71
2021/09/08 06:05:25;;;;;;;;;;;;;;;14.60;85.97;100643.34;20639127;28;20054;-72
2021/09/08 06:15:27;;;;;;;27.50;18.33;;;;;;;14.96;84.71;100639.69;20656021;28;20364;-71
2021/09/08 06:25:30;;;;;;;23.65;16.98;;;;;;;15.34;83.73;100646.44;20655559;28;20042;-72
2021/09/08 06:35:32;;;;;;;23.40;16.08;;;;;;;15.74;81.72;100629.34;20658943;28;20061;-72
2021/09/08 06:45:34;;;;;;;23.40;15.73;;;;;;;15.95;80.38;100631.25;20671120;28;20054;-72
2021/09/08 06:55:36;;;;;;;24.80;16.33;;;;;;;16.18;79.53;100619.88;20668829;28;20416;-71
2021/09/08 07:05:37;;;;;;;27.02;15.10;;;;;;;16.43;77.73;100604.00;20689664;28;20049;-71
2021/09/08 07:15:39;;;;;;;20.58;15.32;;;;;;;16.73;76.85;100598.56;20716243;28;20131;-72
2021/09/08 07:25:41;;;;;;;20.98;14.60;;;;;;;16.82;76.34;100598.19;20692460;28;20516;-71
2021/09/08 07:35:42;;;;;;;19.25;14.13;;;;;;;16.86;75.52;100598.03;20668535;28;20397;-72
2021/09/08 07:45:46;;;;;;;24.48;15.75;;;;;;;17.18;74.37;100591.44;20747353;28;20073;-72
2021/09/08 07:55:48;;;;;;;22.35;13.18;;;;;;;17.65;72.09;100583.34;20746877;28;20057;-72
2021/09/08 08:05:50;;;;;;;21.00;13.60;;;;;;;17.87;70.92;100575.41;20746276;28;20058;-71
2021/09/08 08:15:51;;;;;;;22.17;13.70;;;;;;;18.12;71.11;100574.34;20696703;28;20104;-72
2021/09/08 08:25:53;;;;;;;17.92;13.00;;;;;;;18.40;70.64;100560.72;20664690;28;20042;-72
2021/09/08 08:35:55;;;;;;;20.00;12.95;;;;;;;18.91;66.91;100548.63;20663235;28;20057;-72
2021/09/08 08:45:58;;;;;;;17.60;11.27;;;;;;;19.51;65.10;100522.66;20664089;28;20050;-72
2021/09/08 08:56:00;;;;;;;14.68;10.40;;;;;;;19.87;63.51;100535.00;20661178;28;20057;-72
2021/09/08 09:06:03;;;;;;;17.95;10.63;;;;;;;20.19;62.61;100517.34;20661714;28;20416;-73
2021/09/08 09:16:09;;;;;;;17.38;11.38;;;;;;;20.49;61.31;100512.19;20714029;28;20108;-73
2021/09/08 09:26:11;;;;;;;17.52;10.07;;;;;;;21.04;58.57;100495.78;20740935;28;20054;-72
2021/09/08 09:36:16;;;;;;;16.13;9.93;;;;;;;21.46;57.42;100488.91;20739919;28;20504;-72
2021/09/08 09:46:19;;;;;;;13.65;8.77;;;;;;;21.97;55.73;100473.38;20738219;28;20416;-72
2021/09/08 09:56:23;;;;;;;16.23;9.43;;;;;;;22.20;52.32;100467.50;20739014;28;20041;-73
2021/09/08 10:06:25;;;;;;;13.77;8.45;;;;;;;22.76;50.33;100446.16;20735928;28;20046;-72
2021/09/08 10:16:27;;;;;;;11.93;7.90;;;;;;;23.07;49.47;100434.31;20681946;28;20079;-73
2021/09/08 10:26:32;;;;;;;11.77;7.80;;;;;;;23.24;46.87;100415.34;20656471;28;20505;-73
2021/09/08 10:36:36;;;;;;;12.40;7.00;;;;;;;23.61;42.03;100402.06;20655862;28;20117;-72
2021/09/08 10:46:49;;;;;;;10.87;6.23;;;;;;;23.63;43.02;100373.44;20655838;28;20046;-72
2021/09/08 10:56:52;;;;;;;15.95;6.75;;;;;;;23.91;41.10;100367.03;20656524;28;20105;-72
2021/09/08 11:06:54;;;;;;;11.43;6.25;;;;;;;24.01;43.55;100369.88;20655789;28;20087;-73
2021/09/08 11:16:59;;;;;;;10.63;6.18;;;;;;;23.84;42.80;100354.19;20714280;28;20046;-73
2021/09/08 11:27:08;;;;;;;11.55;7.50;;;;;;;24.13;43.09;100347.56;20746161;28;20463;-72
2021/09/08 11:37:10;;;;;;;9.45;6.65;;;;;;;24.03;42.00;100339.38;20748999;28;20062;-70
2021/09/08 11:47:16;;;;;;;11.25;7.07;;;;;;;24.08;43.91;100347.06;20747812;28;20053;-70
2021/09/08 11:57:25;;;;;;;9.75;6.28;;;;;;;24.04;44.24;100345.56;20747843;28;20050;-69
2021/09/08 12:07:30;;;;;;;9.98;6.53;;;;;;;24.11;43.50;100321.94;20746866;28;20108;-70
2021/09/08 12:17:32;;;;;;;11.02;7.13;;;;;;;24.32;43.93;100323.84;20683792;28;20108;-70
2021/09/08 12:27:34;;;;;;;10.82;7.25;;;;;;;24.56;42.33;100309.63;20664981;28;20097;-70
2021/09/08 12:37:36;;;;;;;11.40;6.47;;;;;;;24.64;42.20;100288.50;20662361;28;20042;-70
2021/09/08 12:47:54;;;;;;;10.38;7.18;;;;;;;24.69;42.84;100275.63;20645519;28;20420;-70
2021/09/08 12:57:56;;;;;;;11.95;6.65;;;;;;;24.65;43.28;100263.44;20645237;28;20481;-71
2021/09/08 13:07:57;;;;;;;11.38;6.40;;;;;;;25.22;41.29;100251.88;20660131;28;20093;-71
2021/09/08 13:17:59;;;;;;;13.57;6.00;;;;;;;25.11;39.23;100235.78;20728626;28;20115;-71
2021/09/08 13:28:01;;;;;;;12.45;6.72;;;;;;;25.08;41.53;100225.31;20741550;28;20100;-71
2021/09/08 13:38:04;;;;;;;8.45;6.03;;;;;;;25.41;39.09;100202.16;20739402;28;20053;-71
2021/09/08 13:48:06;;;;;;;12.57;6.05;;;;;;;25.31;39.98;100200.22;20738793;28;20096;-71
2021/09/08 13:58:08;;;;;;;11.57;5.90;;;;;;;25.53;38.31;100182.38;20740398;28;20082;-71
2021/09/08 14:08:13;;;;;;;9.65;5.53;;;;;;;25.52;39.13;100175.31;20737757;28;20100;-70
2021/09/08 14:18:15;;;;;;;11.60;6.90;;;;;;;25.88;38.24;100146.47;20669868;28;20046;-70
2021/09/08 14:28:18;;;;;;;11.90;5.77;;;;;;;25.95;37.79;100144.97;20657601;28;20463;-72
2021/09/08 14:38:20;;;;;;;12.60;6.03;;;;;;;26.12;36.33;100139.06;20656019;28;20046;-71
2021/09/08 14:48:23;;;;;;;10.60;5.50;;;;;;;26.16;37.02;100120.84;20656375;28;20088;-71
2021/09/08 14:58:24;;;;;;;8.02;5.28;;;;;;;26.00;35.98;100115.94;20661016;28;20050;-71
2021/09/08 15:08:26;;;;;;;9.05;5.32;;;;;;;26.48;34.71;100110.06;20670095;28;20116;-71
2021/09/08 15:18:28;;;;;;;12.32;5.10;;;;;;;26.49;35.42;100085.75;20741065;28;20119;-71
2021/09/08 15:28:30;;;;;;;8.95;5.43;;;;;;;26.40;35.21;100085.66;20732772;28;20053;-71
2021/09/08 15:38:32;;;;;;;8.82;5.30;;;;;;;25.93;37.34;100083.41;20748830;28;20046;-71
2021/09/08 15:48:34;;;;;;;7.80;4.82;;;;;;;25.88;37.65;100077.59;20748373;28;20050;-71
2021/09/08 15:58:36;;;;;;;9.48;4.63;;;;;;;26.18;35.55;100065.22;20749197;28;20559;-71
2021/09/08 16:08:38;;;;;;;7.22;4.72;;;;;;;25.98;36.05;100058.88;20746695;28;20397;-71
2021/09/08 16:18:40;;;;;;;7.90;5.28;;;;;;;25.65;37.16;100046.47;20674539;28;20120;-71
2021/09/08 16:28:42;;;;;;;8.35;4.68;;;;;;;25.83;36.21;100047.63;20664566;28;20097;-72
2021/09/08 16:38:44;;;;;;;9.82;4.80;;;;;;;25.69;36.83;100043.41;20664005;28;20109;-73
2021/09/08 16:48:46;;;;;;;11.13;6.40;;;;;;;25.56;39.46;100048.09;20663177;28;20046;-72
2021/09/08 16:58:48;;;;;;;13.63;5.25;;;;;;;25.37;40.75;100032.69;20662248;28;20046;-72
2021/09/08 17:08:50;;;;;;;13.05;5.68;;;;;;;25.15;41.40;100033.59;20661233;28;20050;-72
2021/09/08 17:18:52;;;;;;;10.63;4.65;;;;;;;24.61;46.24;100026.38;20734054;28;20068;-72
2021/09/08 17:28:55;;;;;;;11.88;5.47;;;;;;;23.85;48.97;100024.31;20747050;28;20045;-72
2021/09/08 17:38:58;;;;;;;9.48;5.50;;;;;;;23.28;51.18;100029.47;20740203;28;20401;-72
2021/09/08 17:48:59;;;;;;;10.63;5.32;;;;;;;22.93;52.12;100029.38;20738100;28;20132;-72
2021/09/08 17:59:02;;;;;;;8.60;5.20;;;;;;;22.67;52.51;100031.25;20739857;28;20049;-72
2021/09/08 18:09:04;;;;;;;12.68;5.35;;;;;;;22.22;54.40;100038.84;20738019;28;20056;-72
2021/09/08 18:19:06;;;;;;;10.82;5.38;;;;;;;21.69;57.55;100040.69;20662760;28;20058;-72
2021/09/08 18:29:08;;;;;;;9.05;5.35;;;;;;;21.26;59.82;100048.84;20656801;28;20050;-72
2021/09/08 18:39:10;;;;;;;8.70;5.90;;;;;;;20.90;60.90;100043.28;20672227;28;20054;-72
2021/09/08 18:49:12;;;;;;;8.75;5.70;;;;;;;20.70;61.51;100055.19;20671368;28;20054;-72
2021/09/08 18:59:14;;;;;;;10.10;5.30;;;;;;;20.39;62.67;100049.06;20671688;28;20551;-70
2021/09/08 19:09:16;;;;;;;9.40;5.80;;;;;;;20.31;62.70;100055.81;20669830;28;20096;-72
2021/09/08 19:19:20;;;;;;;8.68;6.20;;;;;;;20.18;63.40;100045.94;20746979;28;20058;-72
2021/09/08 19:29:22;;;;;;;11.88;6.90;;;;;;;19.96;64.54;100050.84;20732488;28;20041;-72
2021/09/08 19:39:25;;;;;;;10.32;5.85;;;;;;;19.79;65.06;100053.66;20749419;28;20042;-71
2021/09/08 19:49:27;;;;;;;12.43;6.97;;;;;;;19.60;66.27;100065.38;20747162;28;20049;-72
2021/09/08 19:59:29;;;;;;;16.65;7.05;;;;;;;19.22;68.88;100055.13;20747375;28;20131;-71
2021/09/08 20:09:32;;;;;;;12.20;7.38;;;;;;;19.09;69.13;100053.25;20746366;28;20538;-72
2021/09/08 20:19:36;;;;;;;13.10;8.18;;;;;;;19.07;68.91;100049.81;20666439;28;20057;-72
2021/09/08 20:29:38;;;;;;;14.20;8.30;;;;;;;18.82;70.02;100056.50;20665863;28;20664;-72
2021/09/08 20:39:40;;;;;;;11.82;8.25;;;;;;;18.75;70.32;100059.59;20663322;28;20054;-72
2021/09/08 20:49:42;;;;;;;13.35;8.88;;;;;;;18.62;70.72;100049.59;20665266;28;20046;-72
2021/09/08 20:59:44;;;;;;;13.05;8.68;;;;;;;18.38;71.93;100043.81;20662835;28;20046;-71
2021/09/08 21:09:46;;;;;;;16.42;9.30;;;;;;;18.53;70.08;100044.78;20662362;28;20050;-73
2021/09/08 21:19:48;;;;;;;13.90;9.02;;;;;;;18.85;68.66;100051.03;20743326;28;20060;-72
2021/09/08 21:29:49;;;;;;;14.80;9.23;;;;;;;18.91;68.64;100044.53;20743879;28;20046;-72
2021/09/08 21:39:51;;;;;;;15.95;9.07;;;;;;;18.96;68.44;100053.06;20742117;28;20488;-71
2021/09/08 21:49:53;;;;;;;13.18;9.50;;;;;;;18.76;70.32;100050.69;20740338;28;20054;-72
2021/09/08 21:59:55;;;;;;;14.00;9.45;;;;;;;18.67;70.82;100047.56;20739576;28;20042;-72
2021/09/08 22:09:57;;;;;;;16.27;9.48;;;;;;;18.69;71.29;100051.03;20675646;28;20798;-72
2021/09/08 22:19:59;;;;;;;13.27;9.10;;;;;;;18.40;72.11;100047.28;20656439;28;20460;-72
2021/09/08 22:30:01;;;;;;;13.07;9.20;;;;;;;18.12;74.08;100047.88;20655719;28;20074;-72
2021/09/08 22:40:06;;;;;;;15.20;10.10;;;;;;;17.95;74.56;100054.03;20653332;28;20054;-72
2021/09/08 22:50:09;;;;;;;13.52;9.80;;;;;;;17.74;75.53;100051.66;20654646;28;20051;-72
2021/09/08 23:00:12;;;;;;;14.80;9.57;;;;;;;17.56;75.98;100051.59;20653585;28;20481;-72
2021/09/08 23:10:14;;;;;;;14.88;10.10;;;;;;;17.57;75.89;100055.94;20653743;28;20062;-72
2021/09/08 23:20:17;;;;;;;14.98;9.48;;;;;;;17.49;75.81;100063.44;20660475;28;20050;-72
2021/09/08 23:30:19;;;;;;;15.52;10.52;;;;;;;17.35;76.25;100052.69;20667916;28;20124;-72
2021/09/08 23:40:21;;;;;;;15.38;9.95;;;;;;;17.09;77.45;100052.13;20666850;28;20050;-72
2021/09/08 23:50:23;;;;;;;14.10;10.10;;;;;;;17.00;76.65;100054.38;20649815;28;20054;-72
